createdAt,value
2023-02-06T00:01:06.515Z,5.71
2023-02-06T00:03:35.761Z,5.59
2023-02-06T00:06:03.709Z,5.69
2023-02-06T00:08:31.522Z,5.55
2023-02-06T00:10:59.395Z,5.59
2023-02-06T00:13:27.382Z,5.40
2023-02-06T00:15:55.283Z,5.33
2023-02-06T00:18:23.149Z,5.51
2023-02-06T00:20:52.424Z,5.49
2023-02-06T00:23:20.319Z,5.48
2023-02-06T00:25:48.153Z,5.42
2023-02-06T00:28:16.040Z,5.48
2023-02-06T00:30:47.465Z,5.26
2023-02-06T00:33:15.419Z,5.29
2023-02-06T00:35:43.338Z,5.41
2023-02-06T00:38:12.846Z,5.41
2023-02-06T00:40:40.684Z,5.26
2023-02-06T00:43:08.516Z,5.44
2023-02-06T00:45:36.679Z,5.46
2023-02-06T00:48:04.984Z,5.58
2023-02-06T00:50:32.821Z,5.62
2023-02-06T00:53:00.706Z,5.42
2023-02-06T00:55:29.948Z,5.38
2023-02-06T00:57:57.805Z,5.52
2023-02-06T01:00:25.740Z,5.64
2023-02-06T01:02:53.617Z,5.67
2023-02-06T01:05:24.446Z,5.62
2023-02-06T01:07:52.476Z,5.64
2023-02-06T01:10:20.607Z,5.52
2023-02-06T01:12:49.812Z,5.53
2023-02-06T01:15:17.701Z,5.54
2023-02-06T01:17:45.594Z,5.48
2023-02-06T01:20:14.732Z,5.53
2023-02-06T01:22:42.863Z,5.52
2023-02-06T01:25:12.976Z,5.49
2023-02-06T01:27:40.827Z,5.44
2023-02-06T01:30:12.066Z,5.35
2023-02-06T01:32:40.528Z,5.39
2023-02-06T01:35:09.677Z,5.39
2023-02-06T01:37:38.561Z,5.34
2023-02-06T01:40:10.323Z,5.51
2023-02-06T01:42:38.638Z,5.19
2023-02-06T01:45:43.449Z,5.38
2023-02-06T01:48:16.196Z,5.37
2023-02-06T01:50:47.726Z,5.38
2023-02-06T01:53:16.499Z,4.87
2023-02-06T01:55:46.356Z,4.96
2023-02-06T01:58:18.914Z,5.37
2023-02-06T02:00:47.207Z,5.29
2023-02-06T02:03:16.686Z,5.31
2023-02-06T02:05:44.771Z,5.42
2023-02-06T02:08:16.182Z,5.43
2023-02-06T02:10:44.413Z,5.42
2023-02-06T02:13:12.324Z,5.36
2023-02-06T02:15:43.441Z,5.14
2023-02-06T02:18:26.866Z,5.38
2023-02-06T02:21:24.466Z,4.45
2023-02-06T02:23:56.407Z,4.69
2023-02-06T02:26:58.648Z,4.75
2023-02-06T02:29:38.334Z,4.68
2023-02-06T02:32:34.135Z,4.68
2023-02-06T02:35:11.928Z,4.45
2023-02-06T02:37:50.100Z,4.04
2023-02-06T02:40:25.266Z,4.28
2023-02-06T02:43:02.961Z,3.52
2023-02-06T02:45:38.106Z,3.66
2023-02-06T02:48:08.025Z,4.77
2023-02-06T02:50:37.826Z,4.38
2023-02-06T02:53:06.651Z,5.29
2023-02-06T02:55:35.072Z,5.84
2023-02-06T02:58:07.871Z,5.92
2023-02-06T03:00:38.395Z,5.09
2023-02-06T03:03:08.148Z,4.46
2023-02-06T03:05:41.849Z,3.66
2023-02-06T03:08:17.244Z,4.53
2023-02-06T03:10:49.538Z,4.97
2023-02-06T03:13:21.919Z,3.05
2023-02-06T03:15:56.070Z,4.26
2023-02-06T03:18:26.687Z,4.19
2023-02-06T03:20:56.097Z,5.58
2023-02-06T03:23:26.222Z,5.78
2023-02-06T03:25:56.220Z,4.94
2023-02-06T03:28:27.692Z,5.02
2023-02-06T03:30:57.550Z,3.78
2023-02-06T03:33:32.196Z,4.13
2023-02-06T03:36:01.543Z,3.96
2023-02-06T03:38:29.448Z,4.14
2023-02-06T03:40:59.260Z,5.22
2023-02-06T03:43:28.679Z,5.97
2023-02-06T03:46:00.162Z,6.75
2023-02-06T03:48:31.439Z,5.19
2023-02-06T03:51:02.514Z,4.63
2023-02-06T03:53:31.187Z,4.06
2023-02-06T03:56:02.850Z,4.79
2023-02-06T03:58:30.914Z,6.90
2023-02-06T04:00:59.042Z,6.16
2023-02-06T04:03:28.023Z,5.17
2023-02-06T04:05:55.868Z,6.30
2023-02-06T04:08:25.145Z,6.36
2023-02-06T04:10:53.000Z,6.74
2023-02-06T04:13:20.934Z,7.52
2023-02-06T04:15:48.897Z,7.40
2023-02-06T04:18:16.754Z,6.03
2023-02-06T04:20:44.597Z,5.16
2023-02-06T04:23:12.490Z,7.11
2023-02-06T04:25:41.749Z,7.39
2023-02-06T04:28:09.860Z,7.40
2023-02-06T04:30:37.806Z,6.82
2023-02-06T04:33:06.272Z,7.40
2023-02-06T04:35:34.401Z,6.15
2023-02-06T04:38:02.485Z,5.94
2023-02-06T04:40:30.304Z,7.07
2023-02-06T04:42:59.550Z,7.45
2023-02-06T04:45:27.472Z,7.20
2023-02-06T04:47:55.333Z,4.99
2023-02-06T04:50:23.259Z,4.05
2023-02-06T04:52:51.269Z,3.92
2023-02-06T04:55:19.176Z,6.22
2023-02-06T04:57:47.024Z,5.82
2023-02-06T05:00:17.512Z,5.74
2023-02-06T05:02:45.451Z,5.23
2023-02-06T05:05:13.447Z,5.32
2023-02-06T05:07:41.259Z,4.93
2023-02-06T05:10:09.967Z,3.57
2023-02-06T05:12:37.869Z,4.19
2023-02-06T05:15:06.164Z,5.58
2023-02-06T05:17:35.444Z,7.02
2023-02-06T05:20:03.687Z,7.43
2023-02-06T05:22:31.589Z,6.30
2023-02-06T05:24:59.547Z,6.27
2023-02-06T05:27:27.478Z,6.02
2023-02-06T05:29:56.795Z,6.74
2023-02-06T05:32:24.623Z,6.46
2023-02-06T05:34:53.813Z,4.22
2023-02-06T05:37:21.653Z,5.02
2023-02-06T05:39:49.529Z,5.38
2023-02-06T05:42:17.383Z,4.94
2023-02-06T05:44:46.905Z,5.02
2023-02-06T05:47:14.771Z,5.00
2023-02-06T05:49:44.016Z,5.30
2023-02-06T05:52:13.354Z,6.06
2023-02-06T05:54:41.219Z,5.72
2023-02-06T05:57:09.103Z,7.52
2023-02-06T05:59:37.005Z,6.82
2023-02-06T06:02:05.183Z,5.84
2023-02-06T06:04:33.100Z,7.46
2023-02-06T06:07:01.090Z,7.28
2023-02-06T06:09:30.345Z,7.04
2023-02-06T06:11:58.192Z,6.52
2023-02-06T06:14:26.233Z,6.39
2023-02-06T06:16:54.086Z,4.88
2023-02-06T06:19:21.989Z,4.42
2023-02-06T06:21:49.906Z,7.12
2023-02-06T06:24:17.878Z,7.66
2023-02-06T06:26:47.141Z,7.50
2023-02-06T06:29:17.619Z,7.67
2023-02-06T06:31:45.768Z,8.10
2023-02-06T06:34:13.668Z,7.98
2023-02-06T06:36:41.503Z,8.14
2023-02-06T06:39:09.507Z,6.23
2023-02-06T06:41:37.376Z,7.73
2023-02-06T06:44:06.752Z,6.76
2023-02-06T06:46:34.660Z,6.79
2023-02-06T06:49:02.586Z,7.98
2023-02-06T06:51:30.534Z,7.22
2023-02-06T06:53:58.851Z,8.36
2023-02-06T06:56:26.992Z,8.23
2023-02-06T06:58:55.510Z,6.94
2023-02-06T07:01:24.892Z,8.59
2023-02-06T07:03:52.891Z,8.35
2023-02-06T07:06:20.782Z,8.03
2023-02-06T07:08:48.718Z,7.59
2023-02-06T07:11:16.963Z,8.60
2023-02-06T07:13:44.943Z,7.09
2023-02-06T07:16:13.437Z,8.02
2023-02-06T07:18:43.071Z,6.59
2023-02-06T07:21:11.076Z,8.45
2023-02-06T07:23:39.071Z,8.34
2023-02-06T07:26:06.989Z,8.30
2023-02-06T07:28:35.204Z,8.16
2023-02-06T07:31:03.736Z,6.91
2023-02-06T07:33:31.669Z,7.49
2023-02-06T07:36:03.828Z,8.12
2023-02-06T07:38:32.118Z,6.67
2023-02-06T07:41:02.365Z,7.63
2023-02-06T07:43:30.690Z,7.27
2023-02-06T07:46:00.235Z,6.55
2023-02-06T07:48:28.386Z,5.55
2023-02-06T07:50:56.302Z,4.81
2023-02-06T07:53:25.552Z,4.74
2023-02-06T07:55:53.378Z,5.34
2023-02-06T07:58:21.287Z,6.00
2023-02-06T08:00:49.204Z,6.18
2023-02-06T08:03:17.031Z,6.85
2023-02-06T08:05:44.932Z,5.84
2023-02-06T08:08:12.761Z,7.94
2023-02-06T08:10:42.046Z,9.64
2023-02-06T08:13:09.917Z,7.01
2023-02-06T08:15:38.067Z,7.90
2023-02-06T08:18:06.217Z,7.33
2023-02-06T08:20:34.338Z,6.87
2023-02-06T08:23:02.242Z,7.62
2023-02-06T08:25:30.169Z,6.87
2023-02-06T08:27:59.430Z,6.03
2023-02-06T08:30:27.380Z,6.40
2023-02-06T08:32:55.336Z,7.66
2023-02-06T08:35:23.171Z,9.32
2023-02-06T08:37:51.004Z,7.95
2023-02-06T08:40:21.170Z,7.90
2023-02-06T08:42:51.403Z,6.85
2023-02-06T08:45:20.631Z,7.09
2023-02-06T08:47:48.542Z,6.64
2023-02-06T08:50:17.088Z,7.28
2023-02-06T08:52:44.985Z,7.27
2023-02-06T08:55:12.871Z,9.48
2023-02-06T08:57:40.752Z,10.16
2023-02-06T09:00:10.127Z,8.67
2023-02-06T09:02:39.346Z,9.30
2023-02-06T09:05:07.457Z,8.14
2023-02-06T09:07:35.291Z,7.54
2023-02-06T09:10:03.192Z,6.46
2023-02-06T09:12:31.135Z,9.03
2023-02-06T09:14:59.026Z,5.84
2023-02-06T09:17:27.264Z,7.60
2023-02-06T09:19:56.569Z,8.80
2023-02-06T09:22:24.506Z,7.07
2023-02-06T09:24:52.439Z,7.83
2023-02-06T09:27:20.391Z,9.15
2023-02-06T09:29:48.945Z,9.33
2023-02-06T09:32:16.860Z,10.30
2023-02-06T09:34:44.740Z,9.66
2023-02-06T09:37:13.940Z,10.71
2023-02-06T09:39:41.996Z,10.50
2023-02-06T09:42:14.087Z,9.55
2023-02-06T09:44:44.349Z,9.97
2023-02-06T09:47:19.657Z,9.76
2023-02-06T09:49:49.461Z,10.29
2023-02-06T09:52:31.387Z,9.16
2023-02-06T09:55:04.891Z,9.94
2023-02-06T09:57:40.535Z,10.22
2023-02-06T10:00:17.639Z,10.76
2023-02-06T10:03:09.166Z,10.39
2023-02-06T10:05:46.978Z,10.01
2023-02-06T10:08:21.980Z,9.37
2023-02-06T10:10:52.118Z,10.50
2023-02-06T10:13:23.853Z,10.51
2023-02-06T10:15:54.029Z,8.84
2023-02-06T10:18:27.266Z,9.66
2023-02-06T10:20:58.942Z,9.81
2023-02-06T10:23:32.369Z,8.86
2023-02-06T10:26:17.174Z,10.05
2023-02-06T10:28:46.211Z,10.65
2023-02-06T10:31:47.568Z,9.58
2023-02-06T10:34:26.824Z,9.73
2023-02-06T10:37:06.303Z,10.04
2023-02-06T10:39:46.639Z,10.59
2023-02-06T10:42:21.145Z,10.51
2023-02-06T10:44:53.867Z,10.62
2023-02-06T10:47:29.753Z,10.73
2023-02-06T10:50:01.763Z,11.21
2023-02-06T10:52:32.129Z,11.34
2023-02-06T10:55:05.085Z,11.29
2023-02-06T10:57:33.520Z,10.37
2023-02-06T11:00:02.871Z,10.94
2023-02-06T11:02:40.025Z,10.72
2023-02-06T11:05:10.465Z,10.73
2023-02-06T11:07:41.114Z,10.73
2023-02-06T11:10:14.123Z,10.83
2023-02-06T11:12:43.912Z,10.48
2023-02-06T11:15:21.608Z,10.12
2023-02-06T11:17:50.310Z,10.38
2023-02-06T11:20:22.132Z,10.90
2023-02-06T11:22:53.396Z,10.72
2023-02-06T11:25:33.616Z,10.98
2023-02-06T11:28:02.113Z,10.64
2023-02-06T11:30:33.522Z,10.65
2023-02-06T11:33:05.769Z,10.57
2023-02-06T11:35:38.934Z,10.82
2023-02-06T11:38:13.805Z,10.36
2023-02-06T11:40:43.862Z,10.58
2023-02-06T11:43:20.859Z,10.14
2023-02-06T11:45:52.260Z,10.99
2023-02-06T11:48:36.161Z,11.25
2023-02-06T11:51:04.770Z,11.21
2023-02-06T11:53:32.890Z,11.29
2023-02-06T11:56:05.058Z,10.86
2023-02-06T11:58:34.968Z,10.91
2023-02-06T12:01:05.845Z,11.27
2023-02-06T12:03:36.986Z,11.23
2023-02-06T12:06:09.856Z,10.96
2023-02-06T12:08:45.449Z,11.31
2023-02-06T12:11:19.122Z,10.46
2023-02-06T12:13:50.348Z,11.54
2023-02-06T12:16:18.997Z,11.54
2023-02-06T12:18:50.148Z,11.53
2023-02-06T12:21:24.435Z,10.94
2023-02-06T12:23:54.695Z,11.47
2023-02-06T12:26:26.332Z,11.41
2023-02-06T12:28:59.510Z,11.49
2023-02-06T12:31:33.278Z,11.88
2023-02-06T12:34:10.911Z,11.70
2023-02-06T12:36:50.895Z,11.54
2023-02-06T12:39:21.084Z,11.23
2023-02-06T12:42:02.188Z,11.51
2023-02-06T12:44:33.189Z,11.39
2023-02-06T12:47:04.812Z,11.72
2023-02-06T12:49:37.024Z,11.33
2023-02-06T12:52:10.404Z,11.42
2023-02-06T12:54:43.306Z,11.32
2023-02-06T12:57:16.304Z,11.39
2023-02-06T13:00:09.576Z,11.86
2023-02-06T13:03:02.461Z,11.86
2023-02-06T13:05:34.659Z,11.56
2023-02-06T13:08:06.933Z,12.16
2023-02-06T13:10:35.172Z,12.15
2023-02-06T13:13:05.104Z,12.35
2023-02-06T13:15:37.420Z,12.32
2023-02-06T13:18:36.371Z,12.46
2023-02-06T13:21:20.576Z,11.55
2023-02-06T13:24:15.599Z,11.30
2023-02-06T13:27:20.390Z,11.21
2023-02-06T13:29:51.546Z,11.41
2023-02-06T13:32:47.824Z,11.17
2023-02-06T13:35:29.087Z,11.12
2023-02-06T13:38:28.472Z,11.11
2023-02-06T13:41:18.958Z,11.37
2023-02-06T13:43:50.707Z,11.64
2023-02-06T13:46:21.895Z,11.36
2023-02-06T13:49:06.365Z,11.30
2023-02-06T13:51:50.302Z,11.38
2023-02-06T13:54:39.607Z,11.23
2023-02-06T13:57:32.788Z,11.03
2023-02-06T14:00:02.533Z,11.05
2023-02-06T14:02:40.040Z,11.07
2023-02-06T14:05:12.622Z,10.75
2023-02-06T14:08:01.082Z,10.38
2023-02-06T14:11:19.155Z,10.51
2023-02-06T14:14:01.894Z,10.65
2023-02-06T14:16:38.441Z,11.06
2023-02-06T14:19:13.967Z,11.33
2023-02-06T14:21:54.995Z,11.09
2023-02-06T14:24:44.874Z,11.08
2023-02-06T14:27:29.400Z,11.32
2023-02-06T14:30:06.008Z,11.26
2023-02-06T14:32:42.354Z,11.24
2023-02-06T14:35:29.358Z,11.86
2023-02-06T14:38:07.775Z,12.15
2023-02-06T14:40:41.481Z,11.97
2023-02-06T14:43:16.310Z,12.05
2023-02-06T14:45:49.675Z,13.52
2023-02-06T14:48:27.600Z,15.19
2023-02-06T14:50:57.863Z,15.88
2023-02-06T14:53:27.643Z,16.41
2023-02-06T14:56:07.611Z,17.15
2023-02-06T14:58:36.102Z,18.30
2023-02-06T15:01:20.450Z,18.73
2023-02-06T15:03:49.982Z,18.75
2023-02-06T15:06:34.405Z,18.49
2023-02-06T15:09:02.746Z,18.74
2023-02-06T15:11:32.636Z,19.08
2023-02-06T15:14:03.301Z,19.11
2023-02-06T15:16:33.058Z,18.75
2023-02-06T15:19:12.203Z,18.59
2023-02-06T15:21:44.125Z,18.11
2023-02-06T15:24:24.493Z,18.40
2023-02-06T15:26:56.074Z,18.12
2023-02-06T15:29:26.778Z,18.09
2023-02-06T15:31:56.272Z,18.32
2023-02-06T15:34:25.659Z,17.55
2023-02-06T15:36:55.081Z,16.91
2023-02-06T15:39:23.123Z,16.37
2023-02-06T15:41:53.590Z,16.03
2023-02-06T15:44:27.021Z,15.06
2023-02-06T15:46:56.033Z,14.16
2023-02-06T15:49:35.902Z,12.10
2023-02-06T15:52:06.341Z,10.98
2023-02-06T15:54:34.464Z,10.30
2023-02-06T15:57:05.626Z,9.80
2023-02-06T15:59:36.078Z,9.82
2023-02-06T16:02:05.019Z,9.61
2023-02-06T16:04:35.091Z,9.39
2023-02-06T16:07:07.368Z,9.31
2023-02-06T16:09:41.136Z,8.46
2023-02-06T16:12:09.625Z,8.33
2023-02-06T16:14:39.366Z,8.18
2023-02-06T16:17:23.958Z,8.12
2023-02-06T16:19:54.720Z,8.50
2023-02-06T16:22:29.174Z,8.66
2023-02-06T16:25:14.544Z,8.65
2023-02-06T16:27:45.720Z,8.54
2023-02-06T16:30:23.532Z,8.51
2023-02-06T16:32:53.551Z,8.45
2023-02-06T16:35:22.795Z,8.38
2023-02-06T16:37:53.507Z,8.10
2023-02-06T16:40:21.615Z,7.78
2023-02-06T16:42:49.520Z,7.52
2023-02-06T16:45:19.738Z,7.55
2023-02-06T16:47:47.745Z,7.42
2023-02-06T16:50:16.113Z,7.36
2023-02-06T16:52:51.261Z,7.38
2023-02-06T16:55:23.427Z,7.03
2023-02-06T16:57:54.185Z,7.21
2023-02-06T17:00:25.522Z,7.21
2023-02-06T17:02:54.211Z,7.10
2023-02-06T17:05:23.651Z,6.75
2023-02-06T17:07:51.742Z,6.58
2023-02-06T17:10:23.460Z,6.42
2023-02-06T17:12:54.626Z,6.31
2023-02-06T17:15:22.622Z,6.36
2023-02-06T17:17:50.513Z,5.65
2023-02-06T17:20:25.894Z,6.00
2023-02-06T17:22:53.786Z,6.46
2023-02-06T17:25:23.001Z,6.78
2023-02-06T17:27:50.906Z,6.80
2023-02-06T17:30:20.713Z,6.91
2023-02-06T17:32:48.680Z,7.03
2023-02-06T17:35:17.112Z,6.94
2023-02-06T17:37:45.012Z,6.76
2023-02-06T17:40:18.839Z,6.60
2023-02-06T17:42:48.747Z,6.35
2023-02-06T17:45:16.863Z,6.35
2023-02-06T17:47:45.065Z,5.94
2023-02-06T17:50:15.477Z,6.49
2023-02-06T17:52:43.397Z,7.03
2023-02-06T17:55:11.513Z,6.82
2023-02-06T17:57:39.849Z,6.70
2023-02-06T18:00:14.165Z,6.52
2023-02-06T18:02:42.100Z,6.39
2023-02-06T18:05:10.399Z,6.29
2023-02-06T18:07:38.682Z,6.55
2023-02-06T18:10:07.604Z,6.53
2023-02-06T18:12:35.825Z,6.32
2023-02-06T18:15:03.878Z,6.23
2023-02-06T18:17:33.218Z,5.97
2023-02-06T18:20:01.397Z,6.05
2023-02-06T18:22:29.413Z,6.05
2023-02-06T18:24:57.444Z,6.17
2023-02-06T18:27:25.304Z,6.43
2023-02-06T18:29:55.146Z,6.40
2023-02-06T18:32:23.199Z,6.40
2023-02-06T18:34:52.411Z,6.36
2023-02-06T18:37:20.345Z,6.38
2023-02-06T18:39:48.260Z,6.39
2023-02-06T18:42:33.269Z,6.33
2023-02-06T18:45:03.249Z,6.16
2023-02-06T18:47:31.989Z,6.08
2023-02-06T18:50:01.242Z,6.09
2023-02-06T18:52:29.168Z,6.01
2023-02-06T18:54:57.026Z,5.89
2023-02-06T18:57:24.841Z,5.93
2023-02-06T18:59:52.780Z,5.48
2023-02-06T19:02:20.669Z,5.75
2023-02-06T19:04:48.639Z,5.74
2023-02-06T19:07:18.392Z,5.72
2023-02-06T19:09:46.338Z,5.79
2023-02-06T19:12:14.289Z,5.75
2023-02-06T19:14:42.236Z,5.76
2023-02-06T19:17:10.065Z,5.61
2023-02-06T19:19:37.960Z,5.65
2023-02-06T19:22:05.926Z,5.63
2023-02-06T19:24:35.200Z,5.43
2023-02-06T19:27:03.097Z,5.43
2023-02-06T19:29:36.002Z,5.59
2023-02-06T19:32:05.155Z,5.61
2023-02-06T19:34:35.982Z,5.59
2023-02-06T19:37:04.202Z,5.63
2023-02-06T19:39:34.157Z,5.50
2023-02-06T19:42:06.420Z,5.41
2023-02-06T19:44:34.684Z,5.43
2023-02-06T19:47:03.105Z,5.38
2023-02-06T19:49:31.617Z,5.36
2023-02-06T19:51:59.564Z,5.26
2023-02-06T19:54:27.608Z,4.68
2023-02-06T19:56:55.614Z,4.72
2023-02-06T19:59:28.348Z,5.09
2023-02-06T20:01:58.337Z,5.30
2023-02-06T20:04:30.195Z,5.48
2023-02-06T20:06:58.151Z,5.54
2023-02-06T20:09:27.015Z,5.42
2023-02-06T20:11:55.344Z,5.29
2023-02-06T20:14:25.423Z,5.28
2023-02-06T20:16:53.433Z,5.25
2023-02-06T20:19:24.269Z,5.17
2023-02-06T20:21:53.741Z,5.09
2023-02-06T20:24:23.928Z,5.08
2023-02-06T20:26:55.770Z,5.00
2023-02-06T20:29:27.616Z,4.88
2023-02-06T20:31:56.546Z,4.92
2023-02-06T20:34:24.935Z,4.94
2023-02-06T20:36:53.313Z,4.57
2023-02-06T20:39:21.385Z,4.94
2023-02-06T20:41:50.915Z,5.12
2023-02-06T20:44:20.014Z,5.05
2023-02-06T20:46:49.956Z,5.09
2023-02-06T20:49:19.637Z,5.04
2023-02-06T20:51:48.990Z,4.95
2023-02-06T20:54:17.113Z,4.87
2023-02-06T20:56:45.157Z,4.84
2023-02-06T20:59:14.274Z,4.83
2023-02-06T21:01:42.692Z,4.67
2023-02-06T21:04:13.536Z,4.75
2023-02-06T21:06:41.681Z,4.79
2023-02-06T21:09:10.175Z,4.75
2023-02-06T21:11:40.394Z,4.75
2023-02-06T21:14:08.717Z,4.75
2023-02-06T21:16:38.711Z,4.73
2023-02-06T21:19:07.799Z,4.82
2023-02-06T21:21:37.495Z,4.81
2023-02-06T21:24:06.265Z,4.82
2023-02-06T21:26:34.485Z,5.06
2023-02-06T21:29:03.391Z,4.94
2023-02-06T21:31:36.933Z,4.62
2023-02-06T21:34:08.986Z,4.82
2023-02-06T21:36:39.548Z,5.06
2023-02-06T21:39:07.847Z,4.97
2023-02-06T21:41:36.043Z,4.92
2023-02-06T21:44:04.460Z,4.86
2023-02-06T21:46:33.324Z,4.82
2023-02-06T21:49:01.204Z,4.79
2023-02-06T21:51:29.225Z,4.75
2023-02-06T21:53:58.830Z,4.70
2023-02-06T21:56:28.170Z,4.66
2023-02-06T21:58:56.245Z,4.71
2023-02-06T22:01:27.090Z,4.74
2023-02-06T22:03:54.824Z,4.58
2023-02-06T22:06:22.495Z,4.62
2023-02-06T22:08:51.725Z,4.52
2023-02-06T22:11:21.231Z,4.57
2023-02-06T22:13:49.036Z,4.60
2023-02-06T22:16:17.209Z,4.49
2023-02-06T22:18:44.883Z,4.39
2023-02-06T22:21:13.926Z,4.38
2023-02-06T22:23:41.812Z,4.39
2023-02-06T22:26:10.203Z,4.37
2023-02-06T22:28:39.206Z,4.27
2023-02-06T22:31:07.440Z,4.35
2023-02-06T22:33:35.269Z,4.30
2023-02-06T22:36:04.463Z,4.22
2023-02-06T22:38:32.107Z,4.10
2023-02-06T22:41:00.810Z,3.98
2023-02-06T22:43:28.814Z,3.98
2023-02-06T22:45:57.818Z,3.96
2023-02-06T22:48:25.647Z,3.90
2023-02-06T22:50:53.598Z,3.89
2023-02-06T22:53:36.383Z,3.77
2023-02-06T22:56:22.951Z,3.77
2023-02-06T22:58:50.946Z,3.80
2023-02-06T23:01:20.371Z,3.99
2023-02-06T23:03:48.174Z,3.94
2023-02-06T23:06:16.064Z,3.76
2023-02-06T23:08:44.033Z,3.70
2023-02-06T23:11:11.799Z,3.67
2023-02-06T23:13:39.629Z,3.76
2023-02-06T23:16:07.679Z,3.77
2023-02-06T23:18:36.865Z,3.78
2023-02-06T23:21:06.008Z,3.74
2023-02-06T23:23:33.721Z,3.75
2023-02-06T23:26:01.428Z,3.71
2023-02-06T23:28:29.126Z,3.68
2023-02-06T23:30:56.817Z,3.65
2023-02-06T23:33:24.576Z,3.63
2023-02-06T23:35:53.623Z,3.52
2023-02-06T23:38:21.326Z,3.57
2023-02-06T23:40:49.191Z,3.46
2023-02-06T23:43:17.072Z,3.47
2023-02-06T23:45:45.077Z,3.54
2023-02-06T23:48:12.935Z,3.56
2023-02-06T23:50:40.850Z,3.51
2023-02-06T23:53:12.757Z,3.46
2023-02-06T23:55:41.074Z,3.32
2023-02-06T23:58:08.983Z,3.32
